sensor_id;sensor_type;location;lat;lon;timestamp;temperature;humidity
19138;DHT22;68178;52.188;5.598;2023-04-22T08:20:57;15.80;99.90
19138;DHT22;68178;52.188;5.598;2023-04-22T08:23:29;15.90;99.90
19138;DHT22;68178;52.188;5.598;2023-04-22T08:25:55;16.10;99.90
19138;DHT22;68178;52.188;5.598;2023-04-22T08:28:20;16.30;99.90
19138;DHT22;68178;52.188;5.598;2023-04-22T08:30:49;16.60;99.90
19138;DHT22;68178;52.188;5.598;2023-04-22T08:33:15;16.80;99.90
19138;DHT22;68178;52.188;5.598;2023-04-22T08:35:41;16.90;99.90
19138;DHT22;68178;52.188;5.598;2023-04-22T08:38:06;16.90;99.90
19138;DHT22;68178;52.188;5.598;2023-04-22T08:40:33;17.00;99.90
19138;DHT22;68178;52.188;5.598;2023-04-22T08:42:59;16.90;99.90
19138;DHT22;68178;52.188;5.598;2023-04-22T08:45:25;16.60;99.90
19138;DHT22;68178;52.188;5.598;2023-04-22T08:47:51;16.50;99.90
19138;DHT22;68178;52.188;5.598;2023-04-22T08:50:19;16.80;99.90
19138;DHT22;68178;52.188;5.598;2023-04-22T08:52:45;17.10;99.90
19138;DHT22;68178;52.188;5.598;2023-04-22T08:55:11;17.00;99.90
19138;DHT22;68178;52.188;5.598;2023-04-22T08:57:40;17.20;99.90
19138;DHT22;68178;52.188;5.598;2023-04-22T09:00:06;17.30;99.90
19138;DHT22;68178;52.188;5.598;2023-04-22T09:02:33;17.20;99.90
19138;DHT22;68178;52.188;5.598;2023-04-22T09:05:02;17.50;99.90
19138;DHT22;68178;52.188;5.598;2023-04-22T09:07:30;17.50;99.90
19138;DHT22;68178;52.188;5.598;2023-04-22T09:09:57;17.50;99.90
19138;DHT22;68178;52.188;5.598;2023-04-22T09:12:24;17.40;99.90
19138;DHT22;68178;52.188;5.598;2023-04-22T09:14:50;17.70;99.90
19138;DHT22;68178;52.188;5.598;2023-04-22T09:17:18;17.80;99.90
19138;DHT22;68178;52.188;5.598;2023-04-22T09:20:01;17.80;99.90
19138;DHT22;68178;52.188;5.598;2023-04-22T09:22:28;18.00;99.90
19138;DHT22;68178;52.188;5.598;2023-04-22T09:25:03;18.00;99.90
19138;DHT22;68178;52.188;5.598;2023-04-22T09:27:28;18.30;99.90
19138;DHT22;68178;52.188;5.598;2023-04-22T09:29:54;18.30;99.90
19138;DHT22;68178;52.188;5.598;2023-04-22T09:32:23;18.60;99.90
19138;DHT22;68178;52.188;5.598;2023-04-22T09:34:50;18.70;99.90
19138;DHT22;68178;52.188;5.598;2023-04-22T09:37:23;18.70;99.90
19138;DHT22;68178;52.188;5.598;2023-04-22T09:39:49;18.70;99.90
19138;DHT22;68178;52.188;5.598;2023-04-22T09:42:20;18.80;99.90
19138;DHT22;68178;52.188;5.598;2023-04-22T09:44:50;19.00;99.90
19138;DHT22;68178;52.188;5.598;2023-04-22T09:47:22;19.40;99.90
19138;DHT22;68178;52.188;5.598;2023-04-22T09:49:48;19.40;99.90
19138;DHT22;68178;52.188;5.598;2023-04-22T09:52:24;19.20;99.90
19138;DHT22;68178;52.188;5.598;2023-04-22T09:54:52;19.10;99.90
19138;DHT22;68178;52.188;5.598;2023-04-22T09:57:19;19.10;99.90
19138;DHT22;68178;52.188;5.598;2023-04-22T09:59:49;19.30;99.90
19138;DHT22;68178;52.188;5.598;2023-04-22T10:02:15;19.30;99.90
19138;DHT22;68178;52.188;5.598;2023-04-22T10:04:41;19.40;99.90
19138;DHT22;68178;52.188;5.598;2023-04-22T10:07:07;19.40;99.90
19138;DHT22;68178;52.188;5.598;2023-04-22T10:09:33;19.30;99.90
19138;DHT22;68178;52.188;5.598;2023-04-22T10:11:59;19.40;99.90
19138;DHT22;68178;52.188;5.598;2023-04-22T10:14:26;19.50;99.90
19138;DHT22;68178;52.188;5.598;2023-04-22T10:16:56;19.70;99.90
19138;DHT22;68178;52.188;5.598;2023-04-22T10:19:26;19.50;99.90
19138;DHT22;68178;52.188;5.598;2023-04-22T10:21:57;19.70;99.90
19138;DHT22;68178;52.188;5.598;2023-04-22T10:24:27;20.10;99.90
19138;DHT22;68178;52.188;5.598;2023-04-22T10:26:56;19.90;99.90
19138;DHT22;68178;52.188;5.598;2023-04-22T10:29:37;20.20;99.90
19138;DHT22;68178;52.188;5.598;2023-04-22T10:34:35;20.60;99.90
19138;DHT22;68178;52.188;5.598;2023-04-22T10:37:12;20.70;99.90
19138;DHT22;68178;52.188;5.598;2023-04-22T10:39:39;20.70;99.90
19138;DHT22;68178;52.188;5.598;2023-04-22T10:42:11;20.80;99.90
19138;DHT22;68178;52.188;5.598;2023-04-22T10:45:05;20.80;99.90
19138;DHT22;68178;52.188;5.598;2023-04-22T10:47:36;20.50;99.90
19138;DHT22;68178;52.188;5.598;2023-04-22T10:50:30;20.30;99.90
19138;DHT22;68178;52.188;5.598;2023-04-22T10:53:35;20.00;99.90
19138;DHT22;68178;52.188;5.598;2023-04-22T10:55:52;19.80;99.90
19138;DHT22;68178;52.188;5.598;2023-04-22T10:58:22;19.60;99.90
19138;DHT22;68178;52.188;5.598;2023-04-22T11:00:51;19.80;99.90
19138;DHT22;68178;52.188;5.598;2023-04-22T11:03:27;20.00;99.90
19138;DHT22;68178;52.188;5.598;2023-04-22T11:06:12;20.30;99.90
19138;DHT22;68178;52.188;5.598;2023-04-22T11:08:48;21.00;99.90
19138;DHT22;68178;52.188;5.598;2023-04-22T11:11:16;21.90;99.90
19138;DHT22;68178;52.188;5.598;2023-04-22T11:13:43;22.30;99.90
19138;DHT22;68178;52.188;5.598;2023-04-22T11:16:10;22.10;99.90
19138;DHT22;68178;52.188;5.598;2023-04-22T11:18:36;22.00;99.90
19138;DHT22;68178;52.188;5.598;2023-04-22T11:21:04;21.70;99.90
19138;DHT22;68178;52.188;5.598;2023-04-22T11:23:31;21.30;99.90
19138;DHT22;68178;52.188;5.598;2023-04-22T11:26:02;21.10;99.90
19138;DHT22;68178;52.188;5.598;2023-04-22T11:28:28;20.70;99.90
19138;DHT22;68178;52.188;5.598;2023-04-22T11:31:08;20.20;99.90
19138;DHT22;68178;52.188;5.598;2023-04-22T11:33:36;20.00;99.90
19138;DHT22;68178;52.188;5.598;2023-04-22T11:36:14;19.80;99.90
19138;DHT22;68178;52.188;5.598;2023-04-22T11:38:39;20.00;99.90
19138;DHT22;68178;52.188;5.598;2023-04-22T11:41:06;20.60;99.90
19138;DHT22;68178;52.188;5.598;2023-04-22T11:43:32;20.80;99.90
19138;DHT22;68178;52.188;5.598;2023-04-22T11:45:57;20.80;99.90
19138;DHT22;68178;52.188;5.598;2023-04-22T11:48:23;20.80;99.90
19138;DHT22;68178;52.188;5.598;2023-04-22T11:50:49;20.40;99.90
19138;DHT22;68178;52.188;5.598;2023-04-22T11:53:31;20.20;99.90
19138;DHT22;68178;52.188;5.598;2023-04-22T11:55:56;19.90;99.90
19138;DHT22;68178;52.188;5.598;2023-04-22T11:58:26;19.70;99.90
19138;DHT22;68178;52.188;5.598;2023-04-22T12:00:53;19.30;99.90
19138;DHT22;68178;52.188;5.598;2023-04-22T12:03:28;19.10;99.90
19138;DHT22;68178;52.188;5.598;2023-04-22T12:06:04;18.90;99.90
19138;DHT22;68178;52.188;5.598;2023-04-22T12:08:34;18.70;99.90
19138;DHT22;68178;52.188;5.598;2023-04-22T12:11:03;18.50;99.90
19138;DHT22;68178;52.188;5.598;2023-04-22T12:13:32;18.30;99.90
19138;DHT22;68178;52.188;5.598;2023-04-22T12:15:59;18.00;99.90
19138;DHT22;68178;52.188;5.598;2023-04-22T12:18:32;17.60;99.90
19138;DHT22;68178;52.188;5.598;2023-04-22T12:21:20;17.10;99.90
19138;DHT22;68178;52.188;5.598;2023-04-22T12:23:46;16.70;99.90
19138;DHT22;68178;52.188;5.598;2023-04-22T12:26:14;16.40;99.90
19138;DHT22;68178;52.188;5.598;2023-04-22T12:28:40;16.20;99.90
19138;DHT22;68178;52.188;5.598;2023-04-22T12:31:07;16.40;99.90
19138;DHT22;68178;52.188;5.598;2023-04-22T12:33:33;16.30;99.90
19138;DHT22;68178;52.188;5.598;2023-04-22T12:35:59;16.10;99.90
19138;DHT22;68178;52.188;5.598;2023-04-22T12:38:24;16.00;99.90
19138;DHT22;68178;52.188;5.598;2023-04-22T12:40:51;16.00;99.90
19138;DHT22;68178;52.188;5.598;2023-04-22T12:43:16;16.10;99.90
19138;DHT22;68178;52.188;5.598;2023-04-22T12:45:42;16.00;99.90
19138;DHT22;68178;52.188;5.598;2023-04-22T12:48:08;16.00;99.90
19138;DHT22;68178;52.188;5.598;2023-04-22T12:50:33;16.00;99.90
19138;DHT22;68178;52.188;5.598;2023-04-22T12:52:59;15.90;99.90
19138;DHT22;68178;52.188;5.598;2023-04-22T12:55:25;15.90;99.90
19138;DHT22;68178;52.188;5.598;2023-04-22T12:57:50;16.10;99.90
19138;DHT22;68178;52.188;5.598;2023-04-22T13:00:17;16.00;99.90
19138;DHT22;68178;52.188;5.598;2023-04-22T13:02:44;16.00;99.90
19138;DHT22;68178;52.188;5.598;2023-04-22T13:05:11;15.90;99.90
19138;DHT22;68178;52.188;5.598;2023-04-22T13:07:37;15.90;99.90
19138;DHT22;68178;52.188;5.598;2023-04-22T13:10:05;15.80;99.90
19138;DHT22;68178;52.188;5.598;2023-04-22T13:12:31;16.00;99.90
19138;DHT22;68178;52.188;5.598;2023-04-22T13:14:56;15.90;99.90
19138;DHT22;68178;52.188;5.598;2023-04-22T13:17:22;16.00;99.90
19138;DHT22;68178;52.188;5.598;2023-04-22T13:19:47;15.90;99.90
19138;DHT22;68178;52.188;5.598;2023-04-22T13:22:15;15.80;99.90
19138;DHT22;68178;52.188;5.598;2023-04-22T13:24:40;15.70;99.90
19138;DHT22;68178;52.188;5.598;2023-04-22T13:27:06;15.70;99.90
19138;DHT22;68178;52.188;5.598;2023-04-22T13:29:32;15.60;99.90
19138;DHT22;68178;52.188;5.598;2023-04-22T13:31:57;15.50;99.90
19138;DHT22;68178;52.188;5.598;2023-04-22T13:34:23;15.50;99.90
19138;DHT22;68178;52.188;5.598;2023-04-22T13:36:49;15.40;99.90
19138;DHT22;68178;52.188;5.598;2023-04-22T13:39:14;15.40;99.90
19138;DHT22;68178;52.188;5.598;2023-04-22T13:41:41;15.30;99.90
19138;DHT22;68178;52.188;5.598;2023-04-22T13:44:06;15.30;99.90
19138;DHT22;68178;52.188;5.598;2023-04-22T13:46:35;15.30;99.90
19138;DHT22;68178;52.188;5.598;2023-04-22T13:49:04;15.20;99.90
19138;DHT22;68178;52.188;5.598;2023-04-22T13:51:30;15.10;99.90
19138;DHT22;68178;52.188;5.598;2023-04-22T13:53:59;15.20;99.90
19138;DHT22;68178;52.188;5.598;2023-04-22T13:56:25;15.20;99.90
19138;DHT22;68178;52.188;5.598;2023-04-22T13:58:51;15.30;99.90
19138;DHT22;68178;52.188;5.598;2023-04-22T14:01:17;15.30;99.90
19138;DHT22;68178;52.188;5.598;2023-04-22T14:03:43;15.40;99.90
19138;DHT22;68178;52.188;5.598;2023-04-22T14:06:09;15.60;99.90
19138;DHT22;68178;52.188;5.598;2023-04-22T14:08:36;15.70;99.90
19138;DHT22;68178;52.188;5.598;2023-04-22T14:11:01;15.60;99.90
19138;DHT22;68178;52.188;5.598;2023-04-22T14:13:28;15.60;99.90
19138;DHT22;68178;52.188;5.598;2023-04-22T14:15:54;15.80;99.90
19138;DHT22;68178;52.188;5.598;2023-04-22T14:18:19;15.80;99.90
19138;DHT22;68178;52.188;5.598;2023-04-22T14:20:47;15.70;99.90
19138;DHT22;68178;52.188;5.598;2023-04-22T14:23:13;15.50;99.90
19138;DHT22;68178;52.188;5.598;2023-04-22T14:25:39;15.50;99.90
19138;DHT22;68178;52.188;5.598;2023-04-22T14:28:04;15.40;99.90
19138;DHT22;68178;52.188;5.598;2023-04-22T14:30:30;15.40;99.90
19138;DHT22;68178;52.188;5.598;2023-04-22T14:32:56;15.50;99.90
19138;DHT22;68178;52.188;5.598;2023-04-22T14:35:22;15.40;99.90
19138;DHT22;68178;52.188;5.598;2023-04-22T14:37:47;15.40;99.90
19138;DHT22;68178;52.188;5.598;2023-04-22T14:40:13;15.40;99.90
19138;DHT22;68178;52.188;5.598;2023-04-22T14:42:39;15.20;99.90
19138;DHT22;68178;52.188;5.598;2023-04-22T14:45:05;15.20;99.90
19138;DHT22;68178;52.188;5.598;2023-04-22T14:47:30;15.20;99.90
19138;DHT22;68178;52.188;5.598;2023-04-22T14:49:56;15.20;99.90
19138;DHT22;68178;52.188;5.598;2023-04-22T14:52:22;15.30;99.90
19138;DHT22;68178;52.188;5.598;2023-04-22T14:54:47;15.40;99.90
19138;DHT22;68178;52.188;5.598;2023-04-22T14:57:13;15.40;99.90
19138;DHT22;68178;52.188;5.598;2023-04-22T14:59:39;15.50;99.90
19138;DHT22;68178;52.188;5.598;2023-04-22T15:02:05;15.50;99.90
19138;DHT22;68178;52.188;5.598;2023-04-22T15:04:31;15.50;99.90
19138;DHT22;68178;52.188;5.598;2023-04-22T15:06:57;15.50;99.90
19138;DHT22;68178;52.188;5.598;2023-04-22T15:09:24;15.50;99.90
19138;DHT22;68178;52.188;5.598;2023-04-22T15:11:50;15.30;99.90
19138;DHT22;68178;52.188;5.598;2023-04-22T15:14:16;15.10;99.90
19138;DHT22;68178;52.188;5.598;2023-04-22T15:16:44;15.30;99.90
19138;DHT22;68178;52.188;5.598;2023-04-22T15:19:13;15.10;99.90
19138;DHT22;68178;52.188;5.598;2023-04-22T15:21:39;15.00;99.90
19138;DHT22;68178;52.188;5.598;2023-04-22T15:24:04;15.00;99.90
19138;DHT22;68178;52.188;5.598;2023-04-22T15:26:30;15.10;99.90
19138;DHT22;68178;52.188;5.598;2023-04-22T15:28:56;15.00;99.90
19138;DHT22;68178;52.188;5.598;2023-04-22T15:31:22;15.00;99.90
19138;DHT22;68178;52.188;5.598;2023-04-22T15:33:48;15.00;99.90
19138;DHT22;68178;52.188;5.598;2023-04-22T15:36:13;15.00;99.90
19138;DHT22;68178;52.188;5.598;2023-04-22T15:38:42;14.80;99.90
19138;DHT22;68178;52.188;5.598;2023-04-22T15:41:08;14.80;99.90
19138;DHT22;68178;52.188;5.598;2023-04-22T15:43:33;14.80;99.90
19138;DHT22;68178;52.188;5.598;2023-04-22T15:45:59;14.70;99.90
19138;DHT22;68178;52.188;5.598;2023-04-22T15:48:25;14.70;99.90
19138;DHT22;68178;52.188;5.598;2023-04-22T15:50:51;14.70;99.90
19138;DHT22;68178;52.188;5.598;2023-04-22T15:53:16;14.70;99.90
19138;DHT22;68178;52.188;5.598;2023-04-22T15:55:42;14.80;99.90
19138;DHT22;68178;52.188;5.598;2023-04-22T15:58:07;14.80;99.90
19138;DHT22;68178;52.188;5.598;2023-04-22T16:00:33;14.80;99.90
19138;DHT22;68178;52.188;5.598;2023-04-22T16:02:58;14.90;99.90
19138;DHT22;68178;52.188;5.598;2023-04-22T16:05:24;14.80;99.90
19138;DHT22;68178;52.188;5.598;2023-04-22T16:07:53;14.80;99.90
19138;DHT22;68178;52.188;5.598;2023-04-22T16:10:25;14.80;99.90
19138;DHT22;68178;52.188;5.598;2023-04-22T16:12:52;14.80;99.90
19138;DHT22;68178;52.188;5.598;2023-04-22T16:15:17;14.70;99.90
19138;DHT22;68178;52.188;5.598;2023-04-22T16:17:43;14.60;99.90
19138;DHT22;68178;52.188;5.598;2023-04-22T16:20:09;14.50;99.90
19138;DHT22;68178;52.188;5.598;2023-04-22T16:22:34;14.10;99.90
19138;DHT22;68178;52.188;5.598;2023-04-22T16:25:01;14.00;99.90
19138;DHT22;68178;52.188;5.598;2023-04-22T16:27:26;13.80;99.90
19138;DHT22;68178;52.188;5.598;2023-04-22T16:29:52;13.70;99.90
19138;DHT22;68178;52.188;5.598;2023-04-22T16:32:17;13.40;99.90
19138;DHT22;68178;52.188;5.598;2023-04-22T16:34:43;13.30;99.90
19138;DHT22;68178;52.188;5.598;2023-04-22T16:37:08;13.10;99.90
19138;DHT22;68178;52.188;5.598;2023-04-22T16:39:34;12.80;99.90
19138;DHT22;68178;52.188;5.598;2023-04-22T16:42:00;12.80;99.90
19138;DHT22;68178;52.188;5.598;2023-04-22T16:44:27;12.60;99.90
19138;DHT22;68178;52.188;5.598;2023-04-22T16:46:52;12.50;99.90
19138;DHT22;68178;52.188;5.598;2023-04-22T16:49:18;12.40;99.90
19138;DHT22;68178;52.188;5.598;2023-04-22T16:51:43;12.40;99.90
19138;DHT22;68178;52.188;5.598;2023-04-22T16:54:09;12.40;99.90
19138;DHT22;68178;52.188;5.598;2023-04-22T16:56:34;12.30;99.90
19138;DHT22;68178;52.188;5.598;2023-04-22T16:59:01;12.30;99.90
19138;DHT22;68178;52.188;5.598;2023-04-22T17:01:27;12.20;99.90
19138;DHT22;68178;52.188;5.598;2023-04-22T17:03:54;12.10;99.90
19138;DHT22;68178;52.188;5.598;2023-04-22T17:06:21;12.20;99.90
19138;DHT22;68178;52.188;5.598;2023-04-22T17:08:46;12.10;99.90
19138;DHT22;68178;52.188;5.598;2023-04-22T17:11:12;12.10;99.90
19138;DHT22;68178;52.188;5.598;2023-04-22T17:13:40;12.10;99.90
19138;DHT22;68178;52.188;5.598;2023-04-22T17:16:06;11.90;99.90
19138;DHT22;68178;52.188;5.598;2023-04-22T17:18:34;12.10;99.90
19138;DHT22;68178;52.188;5.598;2023-04-22T17:20:59;12.10;99.90
19138;DHT22;68178;52.188;5.598;2023-04-22T17:23:25;12.10;99.90
19138;DHT22;68178;52.188;5.598;2023-04-22T17:25:51;12.10;99.90
19138;DHT22;68178;52.188;5.598;2023-04-22T17:28:16;12.20;99.90
19138;DHT22;68178;52.188;5.598;2023-04-22T17:30:42;12.30;99.90
19138;DHT22;68178;52.188;5.598;2023-04-22T17:33:14;12.30;99.90
19138;DHT22;68178;52.188;5.598;2023-04-22T17:35:40;12.30;99.90
19138;DHT22;68178;52.188;5.598;2023-04-22T17:38:06;12.30;99.90
19138;DHT22;68178;52.188;5.598;2023-04-22T17:40:31;12.30;99.90
19138;DHT22;68178;52.188;5.598;2023-04-22T17:42:57;12.10;99.90
19138;DHT22;68178;52.188;5.598;2023-04-22T17:45:23;12.00;99.90
19138;DHT22;68178;52.188;5.598;2023-04-22T17:47:49;11.90;99.90
19138;DHT22;68178;52.188;5.598;2023-04-22T17:50:14;11.90;99.90
19138;DHT22;68178;52.188;5.598;2023-04-22T17:52:40;12.00;99.90
19138;DHT22;68178;52.188;5.598;2023-04-22T17:55:06;11.90;99.90
19138;DHT22;68178;52.188;5.598;2023-04-22T17:57:32;11.90;99.90
19138;DHT22;68178;52.188;5.598;2023-04-22T17:59:57;11.90;99.90
19138;DHT22;68178;52.188;5.598;2023-04-22T18:02:23;11.90;99.90
19138;DHT22;68178;52.188;5.598;2023-04-22T18:04:49;12.10;99.90
19138;DHT22;68178;52.188;5.598;2023-04-22T18:07:15;12.00;99.90
19138;DHT22;68178;52.188;5.598;2023-04-22T18:09:41;11.90;99.90
19138;DHT22;68178;52.188;5.598;2023-04-22T18:12:06;11.90;99.90
19138;DHT22;68178;52.188;5.598;2023-04-22T18:14:32;12.00;99.90
19138;DHT22;68178;52.188;5.598;2023-04-22T18:16:58;12.00;99.90
19138;DHT22;68178;52.188;5.598;2023-04-22T18:19:24;11.80;99.90
19138;DHT22;68178;52.188;5.598;2023-04-22T18:21:49;11.70;99.90
19138;DHT22;68178;52.188;5.598;2023-04-22T18:24:18;11.80;99.90
19138;DHT22;68178;52.188;5.598;2023-04-22T18:26:43;11.70;99.90
19138;DHT22;68178;52.188;5.598;2023-04-22T18:29:11;11.60;99.90
19138;DHT22;68178;52.188;5.598;2023-04-22T18:31:37;11.60;99.90
19138;DHT22;68178;52.188;5.598;2023-04-22T18:34:03;11.60;99.90
19138;DHT22;68178;52.188;5.598;2023-04-22T18:36:29;11.50;99.90
19138;DHT22;68178;52.188;5.598;2023-04-22T18:38:56;11.70;99.90
19138;DHT22;68178;52.188;5.598;2023-04-22T18:41:22;11.60;99.90
19138;DHT22;68178;52.188;5.598;2023-04-22T18:43:49;11.50;99.90
19138;DHT22;68178;52.188;5.598;2023-04-22T18:46:15;11.50;99.90
19138;DHT22;68178;52.188;5.598;2023-04-22T18:48:40;11.50;99.90
19138;DHT22;68178;52.188;5.598;2023-04-22T18:51:06;11.60;99.90
19138;DHT22;68178;52.188;5.598;2023-04-22T18:53:32;11.60;99.90
19138;DHT22;68178;52.188;5.598;2023-04-22T18:55:59;11.60;99.90
19138;DHT22;68178;52.188;5.598;2023-04-22T18:58:25;11.70;99.90
19138;DHT22;68178;52.188;5.598;2023-04-22T19:00:51;11.60;99.90
19138;DHT22;68178;52.188;5.598;2023-04-22T19:03:20;11.60;99.90
19138;DHT22;68178;52.188;5.598;2023-04-22T19:05:46;11.40;99.90
19138;DHT22;68178;52.188;5.598;2023-04-22T19:08:11;11.40;99.90
19138;DHT22;68178;52.188;5.598;2023-04-22T19:10:37;11.30;99.90
19138;DHT22;68178;52.188;5.598;2023-04-22T19:13:02;11.30;99.90
19138;DHT22;68178;52.188;5.598;2023-04-22T19:15:31;11.20;99.90
19138;DHT22;68178;52.188;5.598;2023-04-22T19:17:57;11.10;99.90
19138;DHT22;68178;52.188;5.598;2023-04-22T19:20:24;11.10;99.90
19138;DHT22;68178;52.188;5.598;2023-04-22T19:22:50;11.00;99.90
19138;DHT22;68178;52.188;5.598;2023-04-22T19:25:15;10.90;99.90
19138;DHT22;68178;52.188;5.598;2023-04-22T19:27:43;10.80;99.90
19138;DHT22;68178;52.188;5.598;2023-04-22T19:30:09;10.80;99.90
19138;DHT22;68178;52.188;5.598;2023-04-22T19:32:34;10.70;99.90
19138;DHT22;68178;52.188;5.598;2023-04-22T19:35:00;10.60;99.90
19138;DHT22;68178;52.188;5.598;2023-04-22T19:37:26;10.50;99.90
19138;DHT22;68178;52.188;5.598;2023-04-22T19:39:51;10.40;99.90
19138;DHT22;68178;52.188;5.598;2023-04-22T19:42:17;10.50;99.90
19138;DHT22;68178;52.188;5.598;2023-04-22T19:44:45;10.50;99.90
19138;DHT22;68178;52.188;5.598;2023-04-22T19:47:15;10.60;99.90
19138;DHT22;68178;52.188;5.598;2023-04-22T19:49:41;10.50;99.90
19138;DHT22;68178;52.188;5.598;2023-04-22T19:52:10;10.50;99.90
19138;DHT22;68178;52.188;5.598;2023-04-22T19:54:39;10.50;99.90
19138;DHT22;68178;52.188;5.598;2023-04-22T19:57:06;10.50;99.90
19138;DHT22;68178;52.188;5.598;2023-04-22T19:59:32;10.50;99.90
19138;DHT22;68178;52.188;5.598;2023-04-22T20:01:58;10.60;99.90
19138;DHT22;68178;52.188;5.598;2023-04-22T20:04:24;10.50;99.90
19138;DHT22;68178;52.188;5.598;2023-04-22T20:06:50;10.50;99.90
19138;DHT22;68178;52.188;5.598;2023-04-22T20:09:20;10.40;99.90
19138;DHT22;68178;52.188;5.598;2023-04-22T20:11:46;10.30;99.90
19138;DHT22;68178;52.188;5.598;2023-04-22T20:14:12;10.20;99.90
19138;DHT22;68178;52.188;5.598;2023-04-22T20:16:38;10.20;99.90
19138;DHT22;68178;52.188;5.598;2023-04-22T20:19:04;10.20;99.90
19138;DHT22;68178;52.188;5.598;2023-04-22T20:21:31;10.20;99.90
19138;DHT22;68178;52.188;5.598;2023-04-22T20:23:59;10.10;99.90
19138;DHT22;68178;52.188;5.598;2023-04-22T20:26:26;10.10;99.90
19138;DHT22;68178;52.188;5.598;2023-04-22T20:28:51;10.10;99.90
19138;DHT22;68178;52.188;5.598;2023-04-22T20:31:19;10.10;99.90
19138;DHT22;68178;52.188;5.598;2023-04-22T20:33:47;10.20;99.90
19138;DHT22;68178;52.188;5.598;2023-04-22T20:36:13;10.20;99.90
19138;DHT22;68178;52.188;5.598;2023-04-22T20:38:40;10.30;99.90
19138;DHT22;68178;52.188;5.598;2023-04-22T20:41:09;10.30;99.90
19138;DHT22;68178;52.188;5.598;2023-04-22T20:43:35;10.20;99.90
19138;DHT22;68178;52.188;5.598;2023-04-22T20:46:01;10.40;99.90
19138;DHT22;68178;52.188;5.598;2023-04-22T20:48:26;10.10;99.90
19138;DHT22;68178;52.188;5.598;2023-04-22T20:50:52;10.10;99.90
19138;DHT22;68178;52.188;5.598;2023-04-22T20:53:19;10.20;99.90
19138;DHT22;68178;52.188;5.598;2023-04-22T20:55:45;10.10;99.90
19138;DHT22;68178;52.188;5.598;2023-04-22T20:58:11;10.10;99.90
19138;DHT22;68178;52.188;5.598;2023-04-22T21:00:36;10.20;99.90
19138;DHT22;68178;52.188;5.598;2023-04-22T21:03:03;9.90;99.90
19138;DHT22;68178;52.188;5.598;2023-04-22T21:05:31;10.00;99.90
19138;DHT22;68178;52.188;5.598;2023-04-22T21:07:59;10.00;99.90
19138;DHT22;68178;52.188;5.598;2023-04-22T21:10:25;10.00;99.90
19138;DHT22;68178;52.188;5.598;2023-04-22T21:12:53;9.90;99.90
19138;DHT22;68178;52.188;5.598;2023-04-22T21:15:18;9.90;99.90
19138;DHT22;68178;52.188;5.598;2023-04-22T21:17:47;10.00;99.90
19138;DHT22;68178;52.188;5.598;2023-04-22T21:20:17;10.00;99.90
19138;DHT22;68178;52.188;5.598;2023-04-22T21:22:45;10.00;99.90
19138;DHT22;68178;52.188;5.598;2023-04-22T21:25:18;10.00;99.90
19138;DHT22;68178;52.188;5.598;2023-04-22T21:27:45;10.00;99.90
19138;DHT22;68178;52.188;5.598;2023-04-22T21:30:11;9.90;99.90
19138;DHT22;68178;52.188;5.598;2023-04-22T21:32:37;9.90;99.90
19138;DHT22;68178;52.188;5.598;2023-04-22T21:35:05;9.90;99.90
19138;DHT22;68178;52.188;5.598;2023-04-22T21:37:32;9.80;99.90
19138;DHT22;68178;52.188;5.598;2023-04-22T21:39:59;9.80;99.90
19138;DHT22;68178;52.188;5.598;2023-04-22T21:42:25;9.90;99.90
19138;DHT22;68178;52.188;5.598;2023-04-22T21:44:50;9.80;99.90
19138;DHT22;68178;52.188;5.598;2023-04-22T21:47:16;9.60;99.90
19138;DHT22;68178;52.188;5.598;2023-04-22T21:49:41;9.60;99.90
19138;DHT22;68178;52.188;5.598;2023-04-22T21:52:07;9.50;99.90
19138;DHT22;68178;52.188;5.598;2023-04-22T21:54:33;9.40;99.90
19138;DHT22;68178;52.188;5.598;2023-04-22T21:56:59;9.40;99.90
19138;DHT22;68178;52.188;5.598;2023-04-22T21:59:25;9.40;99.90
19138;DHT22;68178;52.188;5.598;2023-04-22T22:01:51;9.40;99.90
19138;DHT22;68178;52.188;5.598;2023-04-22T22:04:16;9.30;99.90
19138;DHT22;68178;52.188;5.598;2023-04-22T22:06:43;9.40;99.90
19138;DHT22;68178;52.188;5.598;2023-04-22T22:09:10;9.40;99.90
19138;DHT22;68178;52.188;5.598;2023-04-22T22:11:35;9.40;99.90
19138;DHT22;68178;52.188;5.598;2023-04-22T22:14:01;9.50;99.90
19138;DHT22;68178;52.188;5.598;2023-04-22T22:16:27;9.50;99.90
19138;DHT22;68178;52.188;5.598;2023-04-22T22:18:52;9.50;99.90
19138;DHT22;68178;52.188;5.598;2023-04-22T22:21:20;9.50;99.90
19138;DHT22;68178;52.188;5.598;2023-04-22T22:23:45;9.60;99.90
19138;DHT22;68178;52.188;5.598;2023-04-22T22:26:11;9.50;99.90
19138;DHT22;68178;52.188;5.598;2023-04-22T22:28:37;9.50;99.90
19138;DHT22;68178;52.188;5.598;2023-04-22T22:31:03;9.50;99.90
19138;DHT22;68178;52.188;5.598;2023-04-22T22:33:29;9.60;99.90
19138;DHT22;68178;52.188;5.598;2023-04-22T22:35:55;9.60;99.90
19138;DHT22;68178;52.188;5.598;2023-04-22T22:38:21;9.60;99.90
19138;DHT22;68178;52.188;5.598;2023-04-22T22:40:46;9.70;99.90
19138;DHT22;68178;52.188;5.598;2023-04-22T22:43:12;9.60;99.90
19138;DHT22;68178;52.188;5.598;2023-04-22T22:45:38;9.70;99.90
19138;DHT22;68178;52.188;5.598;2023-04-22T22:48:04;9.70;99.90
19138;DHT22;68178;52.188;5.598;2023-04-22T22:50:30;9.60;99.90
19138;DHT22;68178;52.188;5.598;2023-04-22T22:52:56;9.60;99.90
19138;DHT22;68178;52.188;5.598;2023-04-22T22:55:21;9.60;99.90
19138;DHT22;68178;52.188;5.598;2023-04-22T22:57:47;9.70;99.90
19138;DHT22;68178;52.188;5.598;2023-04-22T23:00:13;9.70;99.90
19138;DHT22;68178;52.188;5.598;2023-04-22T23:02:39;9.70;99.90
19138;DHT22;68178;52.188;5.598;2023-04-22T23:05:06;9.70;99.90
19138;DHT22;68178;52.188;5.598;2023-04-22T23:07:33;9.70;99.90
19138;DHT22;68178;52.188;5.598;2023-04-22T23:09:59;9.70;99.90
19138;DHT22;68178;52.188;5.598;2023-04-22T23:12:24;9.80;99.90
19138;DHT22;68178;52.188;5.598;2023-04-22T23:14:50;9.70;99.90
19138;DHT22;68178;52.188;5.598;2023-04-22T23:17:15;9.60;99.90
19138;DHT22;68178;52.188;5.598;2023-04-22T23:19:44;9.60;99.90
19138;DHT22;68178;52.188;5.598;2023-04-22T23:22:10;9.60;99.90
19138;DHT22;68178;52.188;5.598;2023-04-22T23:24:37;9.70;99.90
19138;DHT22;68178;52.188;5.598;2023-04-22T23:27:03;9.70;99.90
19138;DHT22;68178;52.188;5.598;2023-04-22T23:29:29;9.70;99.90
19138;DHT22;68178;52.188;5.598;2023-04-22T23:31:55;9.70;99.90
19138;DHT22;68178;52.188;5.598;2023-04-22T23:34:24;9.70;99.90
19138;DHT22;68178;52.188;5.598;2023-04-22T23:36:50;9.60;99.90
19138;DHT22;68178;52.188;5.598;2023-04-22T23:39:17;9.70;99.90
19138;DHT22;68178;52.188;5.598;2023-04-22T23:41:43;9.70;99.90
19138;DHT22;68178;52.188;5.598;2023-04-22T23:44:09;9.70;99.90
19138;DHT22;68178;52.188;5.598;2023-04-22T23:46:34;9.60;99.90
19138;DHT22;68178;52.188;5.598;2023-04-22T23:49:01;9.50;99.90
19138;DHT22;68178;52.188;5.598;2023-04-22T23:51:27;9.50;99.90
19138;DHT22;68178;52.188;5.598;2023-04-22T23:53:54;9.50;99.90